sensor_id;sensor_type;location;lat;lon;timestamp;P1;durP1;ratioP1;P2;durP2;ratioP2
25391;SDS011;13329;48.402;11.718;2023-05-10T00:02:12;1.20;;;0.97;;
25391;SDS011;13329;48.402;11.718;2023-05-10T00:04:37;2.13;;;0.97;;
25391;SDS011;13329;48.402;11.718;2023-05-10T00:07:02;1.75;;;0.98;;
25391;SDS011;13329;48.402;11.718;2023-05-10T00:09:27;1.93;;;1.20;;
25391;SDS011;13329;48.402;11.718;2023-05-10T00:11:53;1.67;;;1.07;;
25391;SDS011;13329;48.402;11.718;2023-05-10T00:14:18;1.77;;;1.00;;
25391;SDS011;13329;48.402;11.718;2023-05-10T00:16:43;2.25;;;1.23;;
25391;SDS011;13329;48.402;11.718;2023-05-10T00:19:08;1.70;;;1.27;;
25391;SDS011;13329;48.402;11.718;2023-05-10T00:21:34;2.33;;;1.40;;
25391;SDS011;13329;48.402;11.718;2023-05-10T00:23:59;1.60;;;1.20;;
25391;SDS011;13329;48.402;11.718;2023-05-10T00:26:25;3.58;;;1.10;;
25391;SDS011;13329;48.402;11.718;2023-05-10T00:28:50;1.50;;;0.98;;
25391;SDS011;13329;48.402;11.718;2023-05-10T00:31:15;1.47;;;1.03;;
25391;SDS011;13329;48.402;11.718;2023-05-10T00:33:40;2.20;;;1.23;;
25391;SDS011;13329;48.402;11.718;2023-05-10T00:36:05;1.63;;;1.20;;
25391;SDS011;13329;48.402;11.718;2023-05-10T00:38:32;4.85;;;1.30;;
25391;SDS011;13329;48.402;11.718;2023-05-10T00:40:57;3.80;;;1.33;;
25391;SDS011;13329;48.402;11.718;2023-05-10T00:43:22;2.47;;;1.40;;
25391;SDS011;13329;48.402;11.718;2023-05-10T00:45:47;1.47;;;1.00;;
25391;SDS011;13329;48.402;11.718;2023-05-10T00:48:13;1.90;;;1.08;;
25391;SDS011;13329;48.402;11.718;2023-05-10T00:50:40;3.97;;;1.23;;
25391;SDS011;13329;48.402;11.718;2023-05-10T00:53:06;2.92;;;1.83;;
25391;SDS011;13329;48.402;11.718;2023-05-10T00:55:32;2.10;;;1.33;;
25391;SDS011;13329;48.402;11.718;2023-05-10T00:57:57;1.77;;;1.23;;
25391;SDS011;13329;48.402;11.718;2023-05-10T01:00:22;4.93;;;1.73;;
25391;SDS011;13329;48.402;11.718;2023-05-10T01:02:47;2.33;;;1.60;;
25391;SDS011;13329;48.402;11.718;2023-05-10T01:05:14;2.72;;;1.58;;
25391;SDS011;13329;48.402;11.718;2023-05-10T01:07:39;3.73;;;1.57;;
25391;SDS011;13329;48.402;11.718;2023-05-10T01:10:05;2.97;;;1.80;;
25391;SDS011;13329;48.402;11.718;2023-05-10T01:12:30;4.03;;;2.00;;
25391;SDS011;13329;48.402;11.718;2023-05-10T01:14:56;2.22;;;1.70;;
25391;SDS011;13329;48.402;11.718;2023-05-10T01:17:22;3.00;;;1.48;;
25391;SDS011;13329;48.402;11.718;2023-05-10T01:19:47;3.70;;;1.77;;
25391;SDS011;13329;48.402;11.718;2023-05-10T01:27:30;2.30;;;1.70;;
25391;SDS011;13329;48.402;11.718;2023-05-10T01:30:12;2.10;;;1.58;;
25391;SDS011;13329;48.402;11.718;2023-05-10T01:38:01;3.17;;;1.40;;
25391;SDS011;13329;48.402;11.718;2023-05-10T01:42:54;2.70;;;1.40;;
25391;SDS011;13329;48.402;11.718;2023-05-10T01:45:28;3.08;;;1.45;;
25391;SDS011;13329;48.402;11.718;2023-05-10T01:47:57;1.90;;;1.45;;
25391;SDS011;13329;48.402;11.718;2023-05-10T01:50:24;2.13;;;1.30;;
25391;SDS011;13329;48.402;11.718;2023-05-10T01:52:53;1.92;;;1.15;;
25391;SDS011;13329;48.402;11.718;2023-05-10T01:55:20;2.10;;;1.30;;
25391;SDS011;13329;48.402;11.718;2023-05-10T01:57:46;1.67;;;1.20;;
25391;SDS011;13329;48.402;11.718;2023-05-10T02:00:13;1.95;;;1.35;;
25391;SDS011;13329;48.402;11.718;2023-05-10T02:02:39;1.88;;;1.10;;
25391;SDS011;13329;48.402;11.718;2023-05-10T02:05:07;2.88;;;1.13;;
25391;SDS011;13329;48.402;11.718;2023-05-10T02:07:36;3.22;;;1.45;;
25391;SDS011;13329;48.402;11.718;2023-05-10T02:10:02;1.75;;;1.15;;
25391;SDS011;13329;48.402;11.718;2023-05-10T02:12:27;1.30;;;1.05;;
25391;SDS011;13329;48.402;11.718;2023-05-10T02:14:53;1.55;;;1.00;;
25391;SDS011;13329;48.402;11.718;2023-05-10T02:17:19;1.40;;;1.30;;
25391;SDS011;13329;48.402;11.718;2023-05-10T02:19:45;3.95;;;1.20;;
25391;SDS011;13329;48.402;11.718;2023-05-10T02:22:12;3.92;;;0.82;;
25391;SDS011;13329;48.402;11.718;2023-05-10T02:24:37;1.13;;;0.90;;
25391;SDS011;13329;48.402;11.718;2023-05-10T02:27:03;2.75;;;1.00;;
25391;SDS011;13329;48.402;11.718;2023-05-10T02:29:28;1.75;;;0.85;;
25391;SDS011;13329;48.402;11.718;2023-05-10T02:31:54;3.85;;;1.00;;
25391;SDS011;13329;48.402;11.718;2023-05-10T02:34:23;1.92;;;1.10;;
25391;SDS011;13329;48.402;11.718;2023-05-10T02:36:50;2.08;;;0.77;;
25391;SDS011;13329;48.402;11.718;2023-05-10T02:39:15;1.85;;;0.98;;
25391;SDS011;13329;48.402;11.718;2023-05-10T02:41:41;0.82;;;0.60;;
25391;SDS011;13329;48.402;11.718;2023-05-10T02:44:07;0.82;;;0.80;;
25391;SDS011;13329;48.402;11.718;2023-05-10T02:46:33;1.00;;;0.80;;
25391;SDS011;13329;48.402;11.718;2023-05-10T02:48:58;1.00;;;0.80;;
25391;SDS011;13329;48.402;11.718;2023-05-10T02:51:24;1.33;;;1.00;;
25391;SDS011;13329;48.402;11.718;2023-05-10T02:53:50;1.45;;;0.90;;
25391;SDS011;13329;48.402;11.718;2023-05-10T02:56:20;1.40;;;1.00;;
25391;SDS011;13329;48.402;11.718;2023-05-10T02:58:48;1.10;;;0.70;;
25391;SDS011;13329;48.402;11.718;2023-05-10T03:01:13;1.60;;;1.10;;
25391;SDS011;13329;48.402;11.718;2023-05-10T03:03:38;0.50;;;0.47;;
25391;SDS011;13329;48.402;11.718;2023-05-10T03:06:04;1.50;;;0.80;;
25391;SDS011;13329;48.402;11.718;2023-05-10T03:08:29;1.13;;;0.90;;
25391;SDS011;13329;48.402;11.718;2023-05-10T03:11:43;2.17;;;1.05;;
25391;SDS011;13329;48.402;11.718;2023-05-10T03:16:21;1.85;;;1.10;;
25391;SDS011;13329;48.402;11.718;2023-05-10T03:18:56;1.65;;;1.10;;
25391;SDS011;13329;48.402;11.718;2023-05-10T03:21:26;2.20;;;1.08;;
25391;SDS011;13329;48.402;11.718;2023-05-10T03:23:59;1.52;;;0.80;;
25391;SDS011;13329;48.402;11.718;2023-05-10T03:26:26;1.10;;;0.80;;
25391;SDS011;13329;48.402;11.718;2023-05-10T03:28:51;0.55;;;0.55;;
25391;SDS011;13329;48.402;11.718;2023-05-10T03:31:17;3.97;;;0.93;;
25391;SDS011;13329;48.402;11.718;2023-05-10T03:33:49;1.02;;;0.70;;
25391;SDS011;13329;48.402;11.718;2023-05-10T03:36:14;1.08;;;0.80;;
25391;SDS011;13329;48.402;11.718;2023-05-10T03:38:39;1.10;;;0.83;;
25391;SDS011;13329;48.402;11.718;2023-05-10T03:41:05;1.17;;;0.90;;
25391;SDS011;13329;48.402;11.718;2023-05-10T03:43:30;1.03;;;0.70;;
25391;SDS011;13329;48.402;11.718;2023-05-10T03:45:55;0.90;;;0.77;;
25391;SDS011;13329;48.402;11.718;2023-05-10T03:48:20;1.03;;;0.67;;
25391;SDS011;13329;48.402;11.718;2023-05-10T03:50:45;2.20;;;0.73;;
25391;SDS011;13329;48.402;11.718;2023-05-10T03:53:10;0.63;;;0.60;;
25391;SDS011;13329;48.402;11.718;2023-05-10T03:55:36;0.77;;;0.73;;
25391;SDS011;13329;48.402;11.718;2023-05-10T03:58:01;2.03;;;1.02;;
25391;SDS011;13329;48.402;11.718;2023-05-10T04:00:26;1.25;;;0.80;;
25391;SDS011;13329;48.402;11.718;2023-05-10T04:02:51;0.87;;;0.80;;
25391;SDS011;13329;48.402;11.718;2023-05-10T04:05:17;1.50;;;0.88;;
25391;SDS011;13329;48.402;11.718;2023-05-10T04:07:42;1.30;;;0.80;;
25391;SDS011;13329;48.402;11.718;2023-05-10T04:10:09;0.80;;;0.73;;
25391;SDS011;13329;48.402;11.718;2023-05-10T04:12:34;1.77;;;1.00;;
25391;SDS011;13329;48.402;11.718;2023-05-10T04:14:59;3.70;;;1.00;;
25391;SDS011;13329;48.402;11.718;2023-05-10T04:17:25;1.30;;;0.90;;
25391;SDS011;13329;48.402;11.718;2023-05-10T04:19:50;0.90;;;0.80;;
25391;SDS011;13329;48.402;11.718;2023-05-10T04:22:17;1.25;;;0.80;;
25391;SDS011;13329;48.402;11.718;2023-05-10T04:24:43;1.10;;;1.00;;
25391;SDS011;13329;48.402;11.718;2023-05-10T04:27:08;1.87;;;1.20;;
25391;SDS011;13329;48.402;11.718;2023-05-10T04:29:33;1.80;;;0.90;;
25391;SDS011;13329;48.402;11.718;2023-05-10T04:31:58;2.40;;;1.20;;
25391;SDS011;13329;48.402;11.718;2023-05-10T04:34:23;1.65;;;0.82;;
25391;SDS011;13329;48.402;11.718;2023-05-10T04:36:49;2.45;;;1.48;;
25391;SDS011;13329;48.402;11.718;2023-05-10T04:39:14;1.97;;;1.50;;
25391;SDS011;13329;48.402;11.718;2023-05-10T04:41:39;2.73;;;1.10;;
25391;SDS011;13329;48.402;11.718;2023-05-10T04:44:04;1.63;;;1.00;;
25391;SDS011;13329;48.402;11.718;2023-05-10T04:46:30;1.02;;;0.75;;
25391;SDS011;13329;48.402;11.718;2023-05-10T04:48:55;2.20;;;1.20;;
25391;SDS011;13329;48.402;11.718;2023-05-10T04:51:20;0.73;;;0.73;;
25391;SDS011;13329;48.402;11.718;2023-05-10T04:53:45;1.25;;;0.95;;
25391;SDS011;13329;48.402;11.718;2023-05-10T04:56:10;1.00;;;0.90;;
25391;SDS011;13329;48.402;11.718;2023-05-10T04:58:35;1.10;;;0.70;;
25391;SDS011;13329;48.402;11.718;2023-05-10T05:01:07;1.27;;;0.87;;
25391;SDS011;13329;48.402;11.718;2023-05-10T05:03:33;1.40;;;1.02;;
25391;SDS011;13329;48.402;11.718;2023-05-10T05:05:58;1.20;;;0.80;;
25391;SDS011;13329;48.402;11.718;2023-05-10T05:08:23;0.70;;;0.57;;
25391;SDS011;13329;48.402;11.718;2023-05-10T05:10:49;0.40;;;0.30;;
25391;SDS011;13329;48.402;11.718;2023-05-10T05:13:15;0.50;;;0.40;;
25391;SDS011;13329;48.402;11.718;2023-05-10T05:15:40;4.03;;;0.70;;
25391;SDS011;13329;48.402;11.718;2023-05-10T05:18:05;0.50;;;0.50;;
25391;SDS011;13329;48.402;11.718;2023-05-10T05:20:31;0.60;;;0.60;;
25391;SDS011;13329;48.402;11.718;2023-05-10T05:22:57;0.70;;;0.50;;
25391;SDS011;13329;48.402;11.718;2023-05-10T05:25:22;0.67;;;0.40;;
25391;SDS011;13329;48.402;11.718;2023-05-10T05:27:47;0.63;;;0.40;;
25391;SDS011;13329;48.402;11.718;2023-05-10T05:30:12;0.20;;;0.20;;
25391;SDS011;13329;48.402;11.718;2023-05-10T05:32:37;0.20;;;0.20;;
25391;SDS011;13329;48.402;11.718;2023-05-10T05:35:02;0.53;;;0.40;;
25391;SDS011;13329;48.402;11.718;2023-05-10T05:37:28;0.77;;;0.40;;
25391;SDS011;13329;48.402;11.718;2023-05-10T05:39:53;0.40;;;0.37;;
25391;SDS011;13329;48.402;11.718;2023-05-10T05:42:19;0.40;;;0.40;;
25391;SDS011;13329;48.402;11.718;2023-05-10T05:44:45;2.73;;;0.53;;
25391;SDS011;13329;48.402;11.718;2023-05-10T05:47:10;0.20;;;0.20;;
25391;SDS011;13329;48.402;11.718;2023-05-10T05:49:35;0.50;;;0.40;;
25391;SDS011;13329;48.402;11.718;2023-05-10T05:52:01;0.40;;;0.40;;
25391;SDS011;13329;48.402;11.718;2023-05-10T05:54:27;0.57;;;0.40;;
25391;SDS011;13329;48.402;11.718;2023-05-10T05:56:55;0.40;;;0.30;;
25391;SDS011;13329;48.402;11.718;2023-05-10T05:59:21;0.40;;;0.40;;
25391;SDS011;13329;48.402;11.718;2023-05-10T06:01:46;0.90;;;0.50;;
25391;SDS011;13329;48.402;11.718;2023-05-10T06:04:11;0.80;;;0.60;;
25391;SDS011;13329;48.402;11.718;2023-05-10T06:06:37;1.27;;;0.63;;
25391;SDS011;13329;48.402;11.718;2023-05-10T06:09:02;0.87;;;0.50;;
25391;SDS011;13329;48.402;11.718;2023-05-10T06:11:27;0.77;;;0.60;;
25391;SDS011;13329;48.402;11.718;2023-05-10T06:13:53;0.80;;;0.70;;
25391;SDS011;13329;48.402;11.718;2023-05-10T06:16:18;2.83;;;0.70;;
25391;SDS011;13329;48.402;11.718;2023-05-10T06:18:43;0.90;;;0.70;;
25391;SDS011;13329;48.402;11.718;2023-05-10T06:21:08;0.77;;;0.60;;
25391;SDS011;13329;48.402;11.718;2023-05-10T06:23:34;0.75;;;0.65;;
25391;SDS011;13329;48.402;11.718;2023-05-10T06:25:59;0.80;;;0.57;;
25391;SDS011;13329;48.402;11.718;2023-05-10T06:28:24;0.90;;;0.73;;
25391;SDS011;13329;48.402;11.718;2023-05-10T06:30:49;0.77;;;0.70;;
25391;SDS011;13329;48.402;11.718;2023-05-10T06:33:15;0.90;;;0.60;;
25391;SDS011;13329;48.402;11.718;2023-05-10T06:35:41;1.02;;;0.70;;
25391;SDS011;13329;48.402;11.718;2023-05-10T06:38:06;1.00;;;0.73;;
25391;SDS011;13329;48.402;11.718;2023-05-10T06:40:31;0.83;;;0.67;;
25391;SDS011;13329;48.402;11.718;2023-05-10T06:42:57;0.75;;;0.60;;
25391;SDS011;13329;48.402;11.718;2023-05-10T06:45:22;1.10;;;1.00;;
25391;SDS011;13329;48.402;11.718;2023-05-10T06:47:48;0.70;;;0.70;;
25391;SDS011;13329;48.402;11.718;2023-05-10T06:50:13;1.20;;;1.07;;
25391;SDS011;13329;48.402;11.718;2023-05-10T06:52:38;1.83;;;0.90;;
25391;SDS011;13329;48.402;11.718;2023-05-10T06:55:04;1.17;;;0.70;;
25391;SDS011;13329;48.402;11.718;2023-05-10T06:57:29;1.60;;;1.00;;
25391;SDS011;13329;48.402;11.718;2023-05-10T06:59:54;2.08;;;1.17;;
25391;SDS011;13329;48.402;11.718;2023-05-10T07:02:21;5.35;;;0.90;;
25391;SDS011;13329;48.402;11.718;2023-05-10T07:04:47;1.33;;;0.77;;
25391;SDS011;13329;48.402;11.718;2023-05-10T07:07:12;1.45;;;0.80;;
25391;SDS011;13329;48.402;11.718;2023-05-10T07:09:38;1.52;;;0.90;;
25391;SDS011;13329;48.402;11.718;2023-05-10T07:12:03;2.27;;;1.30;;
25391;SDS011;13329;48.402;11.718;2023-05-10T07:14:29;1.10;;;0.73;;
25391;SDS011;13329;48.402;11.718;2023-05-10T07:16:54;1.52;;;1.10;;
25391;SDS011;13329;48.402;11.718;2023-05-10T07:19:19;1.17;;;0.90;;
25391;SDS011;13329;48.402;11.718;2023-05-10T07:21:44;2.13;;;0.90;;
25391;SDS011;13329;48.402;11.718;2023-05-10T07:24:09;1.20;;;0.93;;
25391;SDS011;13329;48.402;11.718;2023-05-10T07:26:35;1.83;;;0.93;;
25391;SDS011;13329;48.402;11.718;2023-05-10T07:29:00;2.05;;;1.20;;
25391;SDS011;13329;48.402;11.718;2023-05-10T07:31:26;1.23;;;0.80;;
25391;SDS011;13329;48.402;11.718;2023-05-10T07:33:51;2.95;;;1.00;;
25391;SDS011;13329;48.402;11.718;2023-05-10T07:36:16;1.87;;;1.20;;
25391;SDS011;13329;48.402;11.718;2023-05-10T07:38:41;1.53;;;1.10;;
25391;SDS011;13329;48.402;11.718;2023-05-10T07:41:06;1.57;;;1.10;;
25391;SDS011;13329;48.402;11.718;2023-05-10T07:43:32;1.30;;;0.90;;
25391;SDS011;13329;48.402;11.718;2023-05-10T07:45:57;1.80;;;1.07;;
25391;SDS011;13329;48.402;11.718;2023-05-10T07:48:22;2.42;;;1.17;;
25391;SDS011;13329;48.402;11.718;2023-05-10T07:50:47;1.83;;;1.05;;
25391;SDS011;13329;48.402;11.718;2023-05-10T07:53:13;1.50;;;0.93;;
25391;SDS011;13329;48.402;11.718;2023-05-10T07:55:38;1.33;;;1.00;;
25391;SDS011;13329;48.402;11.718;2023-05-10T07:58:03;1.47;;;1.07;;
25391;SDS011;13329;48.402;11.718;2023-05-10T08:00:28;2.33;;;1.10;;
25391;SDS011;13329;48.402;11.718;2023-05-10T08:02:54;1.42;;;1.10;;
25391;SDS011;13329;48.402;11.718;2023-05-10T08:05:19;1.47;;;1.10;;
25391;SDS011;13329;48.402;11.718;2023-05-10T08:07:44;1.10;;;0.90;;
25391;SDS011;13329;48.402;11.718;2023-05-10T08:10:09;1.60;;;0.97;;
25391;SDS011;13329;48.402;11.718;2023-05-10T08:12:36;2.65;;;0.95;;
25391;SDS011;13329;48.402;11.718;2023-05-10T08:15:01;1.27;;;0.90;;
25391;SDS011;13329;48.402;11.718;2023-05-10T08:17:26;1.70;;;0.90;;
25391;SDS011;13329;48.402;11.718;2023-05-10T08:19:51;2.10;;;1.00;;
25391;SDS011;13329;48.402;11.718;2023-05-10T08:22:17;1.87;;;1.00;;
25391;SDS011;13329;48.402;11.718;2023-05-10T08:24:42;1.70;;;0.90;;
25391;SDS011;13329;48.402;11.718;2023-05-10T08:27:07;1.37;;;0.87;;
25391;SDS011;13329;48.402;11.718;2023-05-10T08:29:32;1.17;;;0.75;;
25391;SDS011;13329;48.402;11.718;2023-05-10T08:31:58;2.70;;;0.80;;
25391;SDS011;13329;48.402;11.718;2023-05-10T08:34:23;1.93;;;0.70;;
25391;SDS011;13329;48.402;11.718;2023-05-10T08:36:48;2.22;;;1.00;;
25391;SDS011;13329;48.402;11.718;2023-05-10T08:39:13;1.00;;;0.90;;
25391;SDS011;13329;48.402;11.718;2023-05-10T08:41:39;0.93;;;0.80;;
25391;SDS011;13329;48.402;11.718;2023-05-10T08:44:04;3.08;;;1.35;;
25391;SDS011;13329;48.402;11.718;2023-05-10T08:46:33;1.00;;;0.90;;
25391;SDS011;13329;48.402;11.718;2023-05-10T08:49:00;0.88;;;0.80;;
25391;SDS011;13329;48.402;11.718;2023-05-10T08:51:26;1.10;;;0.98;;
25391;SDS011;13329;48.402;11.718;2023-05-10T08:53:53;1.15;;;0.88;;
25391;SDS011;13329;48.402;11.718;2023-05-10T08:56:18;1.23;;;0.90;;
25391;SDS011;13329;48.402;11.718;2023-05-10T08:58:44;1.38;;;0.85;;
25391;SDS011;13329;48.402;11.718;2023-05-10T09:01:10;2.25;;;0.93;;
25391;SDS011;13329;48.402;11.718;2023-05-10T09:03:37;1.80;;;1.15;;
25391;SDS011;13329;48.402;11.718;2023-05-10T09:06:03;1.63;;;0.90;;
25391;SDS011;13329;48.402;11.718;2023-05-10T09:08:28;0.73;;;0.65;;
25391;SDS011;13329;48.402;11.718;2023-05-10T09:10:54;2.00;;;1.00;;
25391;SDS011;13329;48.402;11.718;2023-05-10T09:13:19;1.33;;;0.80;;
25391;SDS011;13329;48.402;11.718;2023-05-10T09:15:45;2.42;;;1.00;;
25391;SDS011;13329;48.402;11.718;2023-05-10T09:18:11;1.00;;;0.88;;
25391;SDS011;13329;48.402;11.718;2023-05-10T09:20:36;0.60;;;0.60;;
25391;SDS011;13329;48.402;11.718;2023-05-10T09:23:01;1.27;;;0.87;;
25391;SDS011;13329;48.402;11.718;2023-05-10T09:25:27;1.47;;;1.00;;
25391;SDS011;13329;48.402;11.718;2023-05-10T09:27:52;2.70;;;0.93;;
25391;SDS011;13329;48.402;11.718;2023-05-10T09:30:23;2.42;;;0.90;;
25391;SDS011;13329;48.402;11.718;2023-05-10T09:32:48;1.17;;;0.80;;
25391;SDS011;13329;48.402;11.718;2023-05-10T09:35:15;0.93;;;0.68;;
25391;SDS011;13329;48.402;11.718;2023-05-10T09:37:45;2.45;;;0.90;;
25391;SDS011;13329;48.402;11.718;2023-05-10T09:40:11;2.75;;;0.85;;
25391;SDS011;13329;48.402;11.718;2023-05-10T09:42:37;1.85;;;0.90;;
25391;SDS011;13329;48.402;11.718;2023-05-10T09:45:03;1.98;;;0.98;;
25391;SDS011;13329;48.402;11.718;2023-05-10T09:47:31;1.02;;;0.85;;
25391;SDS011;13329;48.402;11.718;2023-05-10T09:49:57;3.40;;;1.05;;
25391;SDS011;13329;48.402;11.718;2023-05-10T09:52:27;1.00;;;0.80;;
25391;SDS011;13329;48.402;11.718;2023-05-10T09:54:53;1.07;;;0.70;;
25391;SDS011;13329;48.402;11.718;2023-05-10T09:57:20;1.42;;;1.10;;
25391;SDS011;13329;48.402;11.718;2023-05-10T09:59:45;1.30;;;0.85;;
25391;SDS011;13329;48.402;11.718;2023-05-10T10:02:11;1.00;;;0.55;;
25391;SDS011;13329;48.402;11.718;2023-05-10T10:04:40;0.90;;;0.80;;
25391;SDS011;13329;48.402;11.718;2023-05-10T10:07:05;0.98;;;0.70;;
25391;SDS011;13329;48.402;11.718;2023-05-10T10:09:31;1.42;;;0.60;;
25391;SDS011;13329;48.402;11.718;2023-05-10T10:11:56;1.25;;;0.70;;
25391;SDS011;13329;48.402;11.718;2023-05-10T10:14:22;0.77;;;0.70;;
25391;SDS011;13329;48.402;11.718;2023-05-10T10:16:49;0.95;;;0.70;;
25391;SDS011;13329;48.402;11.718;2023-05-10T10:19:14;2.83;;;0.75;;
25391;SDS011;13329;48.402;11.718;2023-05-10T10:21:39;3.40;;;0.70;;
25391;SDS011;13329;48.402;11.718;2023-05-10T10:24:05;1.45;;;0.77;;
25391;SDS011;13329;48.402;11.718;2023-05-10T10:26:32;1.20;;;0.80;;
25391;SDS011;13329;48.402;11.718;2023-05-10T10:31:34;1.52;;;0.50;;
25391;SDS011;13329;48.402;11.718;2023-05-10T10:34:04;2.30;;;0.80;;
25391;SDS011;13329;48.402;11.718;2023-05-10T10:36:30;2.33;;;0.60;;
25391;SDS011;13329;48.402;11.718;2023-05-10T10:38:56;2.30;;;0.50;;
25391;SDS011;13329;48.402;11.718;2023-05-10T10:46:46;1.77;;;0.60;;
25391;SDS011;13329;48.402;11.718;2023-05-10T10:49:21;1.08;;;0.60;;
25391;SDS011;13329;48.402;11.718;2023-05-10T10:54:32;2.00;;;0.85;;
25391;SDS011;13329;48.402;11.718;2023-05-10T10:57:18;0.88;;;0.77;;
25391;SDS011;13329;48.402;11.718;2023-05-10T10:59:43;1.05;;;0.75;;
25391;SDS011;13329;48.402;11.718;2023-05-10T11:02:08;1.33;;;0.73;;
25391;SDS011;13329;48.402;11.718;2023-05-10T11:04:43;1.70;;;1.20;;
25391;SDS011;13329;48.402;11.718;2023-05-10T11:07:18;2.85;;;0.90;;
25391;SDS011;13329;48.402;11.718;2023-05-10T11:09:43;3.60;;;0.73;;
25391;SDS011;13329;48.402;11.718;2023-05-10T11:12:09;1.17;;;0.67;;
25391;SDS011;13329;48.402;11.718;2023-05-10T11:14:34;0.50;;;0.50;;
25391;SDS011;13329;48.402;11.718;2023-05-10T11:16:59;1.83;;;0.77;;
25391;SDS011;13329;48.402;11.718;2023-05-10T11:19:27;1.58;;;0.80;;
25391;SDS011;13329;48.402;11.718;2023-05-10T11:24:29;0.75;;;0.65;;
25391;SDS011;13329;48.402;11.718;2023-05-10T11:26:55;3.08;;;1.33;;
25391;SDS011;13329;48.402;11.718;2023-05-10T11:29:21;2.25;;;0.90;;
25391;SDS011;13329;48.402;11.718;2023-05-10T11:31:46;1.77;;;1.00;;
25391;SDS011;13329;48.402;11.718;2023-05-10T11:34:22;2.42;;;1.00;;
25391;SDS011;13329;48.402;11.718;2023-05-10T11:36:50;0.88;;;0.77;;
25391;SDS011;13329;48.402;11.718;2023-05-10T11:39:15;3.92;;;0.70;;
25391;SDS011;13329;48.402;11.718;2023-05-10T11:41:41;0.67;;;0.53;;
25391;SDS011;13329;48.402;11.718;2023-05-10T11:44:06;1.00;;;0.60;;
25391;SDS011;13329;48.402;11.718;2023-05-10T11:46:34;3.58;;;0.80;;
25391;SDS011;13329;48.402;11.718;2023-05-10T11:48:59;1.33;;;0.70;;
25391;SDS011;13329;48.402;11.718;2023-05-10T11:51:26;2.28;;;0.77;;
25391;SDS011;13329;48.402;11.718;2023-05-10T11:53:55;1.15;;;0.90;;
25391;SDS011;13329;48.402;11.718;2023-05-10T11:56:20;1.25;;;0.60;;
25391;SDS011;13329;48.402;11.718;2023-05-10T11:58:51;2.47;;;0.85;;
25391;SDS011;13329;48.402;11.718;2023-05-10T12:01:17;1.65;;;0.70;;
25391;SDS011;13329;48.402;11.718;2023-05-10T12:03:42;2.37;;;0.77;;
25391;SDS011;13329;48.402;11.718;2023-05-10T12:06:07;2.20;;;0.60;;
25391;SDS011;13329;48.402;11.718;2023-05-10T12:08:32;1.33;;;0.77;;
25391;SDS011;13329;48.402;11.718;2023-05-10T12:11:05;1.43;;;0.50;;
25391;SDS011;13329;48.402;11.718;2023-05-10T12:13:30;1.45;;;0.80;;
25391;SDS011;13329;48.402;11.718;2023-05-10T12:15:58;5.17;;;0.80;;
25391;SDS011;13329;48.402;11.718;2023-05-10T12:18:24;2.75;;;0.80;;
25391;SDS011;13329;48.402;11.718;2023-05-10T12:20:51;1.05;;;0.80;;
25391;SDS011;13329;48.402;11.718;2023-05-10T12:23:17;2.20;;;0.88;;
25391;SDS011;13329;48.402;11.718;2023-05-10T12:25:42;3.50;;;1.07;;
25391;SDS011;13329;48.402;11.718;2023-05-10T12:28:08;1.85;;;0.98;;
25391;SDS011;13329;48.402;11.718;2023-05-10T12:30:35;1.05;;;0.90;;
25391;SDS011;13329;48.402;11.718;2023-05-10T12:35:26;1.90;;;0.90;;
25391;SDS011;13329;48.402;11.718;2023-05-10T12:37:51;1.63;;;0.87;;
25391;SDS011;13329;48.402;11.718;2023-05-10T12:40:16;3.27;;;0.80;;
25391;SDS011;13329;48.402;11.718;2023-05-10T12:42:41;1.40;;;1.00;;
25391;SDS011;13329;48.402;11.718;2023-05-10T12:45:07;4.27;;;1.00;;
25391;SDS011;13329;48.402;11.718;2023-05-10T12:47:33;1.27;;;1.00;;
25391;SDS011;13329;48.402;11.718;2023-05-10T12:49:59;1.63;;;1.00;;
25391;SDS011;13329;48.402;11.718;2023-05-10T12:52:25;1.17;;;1.00;;
25391;SDS011;13329;48.402;11.718;2023-05-10T12:54:51;0.93;;;0.73;;
25391;SDS011;13329;48.402;11.718;2023-05-10T12:57:16;2.10;;;0.90;;
25391;SDS011;13329;48.402;11.718;2023-05-10T12:59:41;1.52;;;1.02;;
25391;SDS011;13329;48.402;11.718;2023-05-10T13:02:06;3.50;;;1.07;;
25391;SDS011;13329;48.402;11.718;2023-05-10T13:04:32;1.73;;;0.95;;
25391;SDS011;13329;48.402;11.718;2023-05-10T13:06:57;2.10;;;1.10;;
25391;SDS011;13329;48.402;11.718;2023-05-10T13:09:24;1.77;;;0.90;;
25391;SDS011;13329;48.402;11.718;2023-05-10T13:11:49;0.60;;;0.60;;
25391;SDS011;13329;48.402;11.718;2023-05-10T13:14:15;1.23;;;0.90;;
25391;SDS011;13329;48.402;11.718;2023-05-10T13:16:40;2.77;;;0.87;;
25391;SDS011;13329;48.402;11.718;2023-05-10T13:19:05;3.20;;;0.90;;
25391;SDS011;13329;48.402;11.718;2023-05-10T13:21:30;0.77;;;0.60;;
25391;SDS011;13329;48.402;11.718;2023-05-10T13:23:55;1.50;;;0.70;;
25391;SDS011;13329;48.402;11.718;2023-05-10T13:26:21;1.17;;;0.60;;
25391;SDS011;13329;48.402;11.718;2023-05-10T13:28:46;0.93;;;0.52;;
25391;SDS011;13329;48.402;11.718;2023-05-10T13:31:11;1.10;;;0.60;;
25391;SDS011;13329;48.402;11.718;2023-05-10T13:33:36;1.10;;;0.40;;
25391;SDS011;13329;48.402;11.718;2023-05-10T13:36:01;0.70;;;0.50;;
25391;SDS011;13329;48.402;11.718;2023-05-10T13:38:27;1.23;;;0.60;;
25391;SDS011;13329;48.402;11.718;2023-05-10T13:40:52;3.90;;;0.70;;
25391;SDS011;13329;48.402;11.718;2023-05-10T13:43:18;1.10;;;0.60;;
25391;SDS011;13329;48.402;11.718;2023-05-10T13:45:43;0.98;;;0.65;;
25391;SDS011;13329;48.402;11.718;2023-05-10T13:48:08;1.63;;;0.70;;
25391;SDS011;13329;48.402;11.718;2023-05-10T13:50:33;2.40;;;0.80;;
25391;SDS011;13329;48.402;11.718;2023-05-10T13:52:58;2.40;;;0.80;;
25391;SDS011;13329;48.402;11.718;2023-05-10T13:55:23;1.23;;;0.70;;
25391;SDS011;13329;48.402;11.718;2023-05-10T13:57:48;1.30;;;0.60;;
25391;SDS011;13329;48.402;11.718;2023-05-10T14:00:14;0.87;;;0.70;;
25391;SDS011;13329;48.402;11.718;2023-05-10T14:02:40;0.60;;;0.60;;
25391;SDS011;13329;48.402;11.718;2023-05-10T14:05:05;1.13;;;0.60;;
25391;SDS011;13329;48.402;11.718;2023-05-10T14:07:30;0.60;;;0.60;;
25391;SDS011;13329;48.402;11.718;2023-05-10T14:09:56;1.13;;;0.73;;
25391;SDS011;13329;48.402;11.718;2023-05-10T14:12:21;1.37;;;1.00;;
25391;SDS011;13329;48.402;11.718;2023-05-10T14:14:46;2.03;;;0.90;;
25391;SDS011;13329;48.402;11.718;2023-05-10T14:17:11;1.00;;;0.80;;
25391;SDS011;13329;48.402;11.718;2023-05-10T14:19:36;1.95;;;1.27;;
25391;SDS011;13329;48.402;11.718;2023-05-10T14:22:01;1.17;;;0.87;;
25391;SDS011;13329;48.402;11.718;2023-05-10T14:24:26;2.50;;;0.90;;
25391;SDS011;13329;48.402;11.718;2023-05-10T14:26:52;3.40;;;1.03;;
25391;SDS011;13329;48.402;11.718;2023-05-10T14:29:19;2.15;;;0.98;;
25391;SDS011;13329;48.402;11.718;2023-05-10T14:31:44;4.53;;;1.33;;
25391;SDS011;13329;48.402;11.718;2023-05-10T14:34:09;1.50;;;1.00;;
25391;SDS011;13329;48.402;11.718;2023-05-10T14:36:34;2.97;;;1.40;;
25391;SDS011;13329;48.402;11.718;2023-05-10T14:39:00;2.40;;;1.10;;
25391;SDS011;13329;48.402;11.718;2023-05-10T14:41:25;2.60;;;1.20;;
25391;SDS011;13329;48.402;11.718;2023-05-10T14:43:50;4.53;;;1.20;;
25391;SDS011;13329;48.402;11.718;2023-05-10T14:46:15;0.83;;;0.73;;
25391;SDS011;13329;48.402;11.718;2023-05-10T14:48:40;3.25;;;1.38;;
25391;SDS011;13329;48.402;11.718;2023-05-10T14:51:06;1.80;;;1.37;;
25391;SDS011;13329;48.402;11.718;2023-05-10T14:53:31;1.75;;;1.20;;
25391;SDS011;13329;48.402;11.718;2023-05-10T14:55:57;1.05;;;0.95;;
25391;SDS011;13329;48.402;11.718;2023-05-10T14:58:22;1.35;;;0.80;;